Pagrindinis puslapis
METAR-TAF:

METAR-TAF

Oro uostai :

Oroville Municipal Airport

Oroville, Kalifornija, Jungtinės Amerikos Valstijos

platuma: 39-29-41N, ilguma: 121-37-13W, Aukštis: 57 m

Dabartinis oras

Ataskaita buvo paskelbta 42 minutes, ne 21:53 UTC
Vėjas 13 kt iš Šiaurės/Šiaurės Vakarų su gūsio iki 21 kt
Temperatūra 19°C
Drėgmė 30%
Slėgis 1016 hPa
Matomumas: 16.1 km
Giedras dangus

METAR: KOVE 252153Z AUTO 33013G21KT 10SM CLR 19/01 A2999 RMK AO2 SLP158 T01940011

Laikas: 14:35 (22:35 UTC)


TAF: trūkstamas

Orai ataskaitas ir orų prognozės (METAR, TAF).

turimą stotys yra geltonos ir raudonos taškus žemėlapyje.

Perkelti pele per norėdami pamatyti stoties vardą.

Tada spustelėkite, norėdami matyti oro stebėjimo ir prognozės.

Norėdami pakeisti žemėlapį: spustelėkite ant žalios mygtukų su juodo kryžiaus žemyn,; žalią mygtuką su brūkšneliu, jei norite nutolinti; arba žalių rodyklių gretimoms žemėlapius.


METAR-TAF: